sensor_id;sensor_type;location;lat;lon;timestamp;P1;durP1;ratioP1;P2;durP2;ratioP2
49942;SDS011;36011;53.362;58.948;2022-10-19T00:02:43;8.45;;;6.50;;
49942;SDS011;36011;53.362;58.948;2022-10-19T00:05:45;9.52;;;6.68;;
49942;SDS011;36011;53.362;58.948;2022-10-19T00:08:46;9.77;;;6.82;;
49942;SDS011;36011;53.362;58.948;2022-10-19T00:11:48;8.13;;;6.55;;
49942;SDS011;36011;53.362;58.948;2022-10-19T00:14:50;10.50;;;7.00;;
49942;SDS011;36011;53.362;58.948;2022-10-19T00:17:52;8.73;;;6.03;;
49942;SDS011;36011;53.362;58.948;2022-10-19T00:21:00;10.77;;;7.13;;
49942;SDS011;36011;53.362;58.948;2022-10-19T00:24:05;10.55;;;7.57;;
49942;SDS011;36011;53.362;58.948;2022-10-19T00:27:12;9.90;;;7.15;;
49942;SDS011;36011;53.362;58.948;2022-10-19T00:30:14;8.63;;;6.25;;
49942;SDS011;36011;53.362;58.948;2022-10-19T00:33:17;13.35;;;7.93;;
49942;SDS011;36011;53.362;58.948;2022-10-19T00:36:26;13.38;;;8.18;;
49942;SDS011;36011;53.362;58.948;2022-10-19T00:39:33;12.45;;;8.35;;
49942;SDS011;36011;53.362;58.948;2022-10-19T00:42:43;12.07;;;8.20;;
49942;SDS011;36011;53.362;58.948;2022-10-19T00:45:45;14.40;;;8.40;;
49942;SDS011;36011;53.362;58.948;2022-10-19T00:48:47;14.13;;;9.65;;
49942;SDS011;36011;53.362;58.948;2022-10-19T00:51:51;13.80;;;9.15;;
49942;SDS011;36011;53.362;58.948;2022-10-19T00:54:55;12.65;;;7.97;;
49942;SDS011;36011;53.362;58.948;2022-10-19T00:57:59;11.57;;;8.60;;
49942;SDS011;36011;53.362;58.948;2022-10-19T01:01:03;12.35;;;8.95;;
49942;SDS011;36011;53.362;58.948;2022-10-19T01:04:07;12.90;;;8.88;;
49942;SDS011;36011;53.362;58.948;2022-10-19T01:07:11;15.80;;;9.20;;
49942;SDS011;36011;53.362;58.948;2022-10-19T01:10:16;13.38;;;8.25;;
49942;SDS011;36011;53.362;58.948;2022-10-19T01:17:00;17.73;;;9.68;;
49942;SDS011;36011;53.362;58.948;2022-10-19T01:24:00;11.45;;;5.97;;
49942;SDS011;36011;53.362;58.948;2022-10-19T01:30:56;15.20;;;9.45;;
49942;SDS011;36011;53.362;58.948;2022-10-19T01:37:26;15.13;;;9.38;;
49942;SDS011;36011;53.362;58.948;2022-10-19T01:54:03;12.90;;;7.55;;
49942;SDS011;36011;53.362;58.948;2022-10-19T01:57:12;13.43;;;9.48;;
49942;SDS011;36011;53.362;58.948;2022-10-19T02:00:20;11.45;;;8.43;;
49942;SDS011;36011;53.362;58.948;2022-10-19T02:03:23;10.48;;;6.47;;
49942;SDS011;36011;53.362;58.948;2022-10-19T02:06:25;8.98;;;5.90;;
49942;SDS011;36011;53.362;58.948;2022-10-19T02:09:27;9.77;;;7.05;;
49942;SDS011;36011;53.362;58.948;2022-10-19T02:12:29;10.07;;;7.13;;
49942;SDS011;36011;53.362;58.948;2022-10-19T02:18:39;10.10;;;6.95;;
49942;SDS011;36011;53.362;58.948;2022-10-19T02:21:44;10.70;;;7.47;;
49942;SDS011;36011;53.362;58.948;2022-10-19T02:24:48;8.07;;;6.28;;
49942;SDS011;36011;53.362;58.948;2022-10-19T02:27:50;12.48;;;6.47;;
49942;SDS011;36011;53.362;58.948;2022-10-19T02:30:51;10.93;;;7.70;;
49942;SDS011;36011;53.362;58.948;2022-10-19T02:33:57;10.70;;;8.18;;
49942;SDS011;36011;53.362;58.948;2022-10-19T02:36:58;9.80;;;6.97;;
49942;SDS011;36011;53.362;58.948;2022-10-19T02:39:59;10.18;;;6.28;;
49942;SDS011;36011;53.362;58.948;2022-10-19T02:43:03;9.45;;;6.43;;
49942;SDS011;36011;53.362;58.948;2022-10-19T02:46:15;6.68;;;4.93;;
49942;SDS011;36011;53.362;58.948;2022-10-19T02:49:26;9.45;;;6.78;;
49942;SDS011;36011;53.362;58.948;2022-10-19T02:52:29;8.52;;;6.10;;
49942;SDS011;36011;53.362;58.948;2022-10-19T02:55:30;8.80;;;6.40;;
49942;SDS011;36011;53.362;58.948;2022-10-19T02:58:34;9.20;;;5.88;;
49942;SDS011;36011;53.362;58.948;2022-10-19T03:01:35;7.20;;;4.85;;
49942;SDS011;36011;53.362;58.948;2022-10-19T03:04:40;5.43;;;3.38;;
49942;SDS011;36011;53.362;58.948;2022-10-19T03:07:44;8.45;;;5.07;;
49942;SDS011;36011;53.362;58.948;2022-10-19T03:10:47;5.53;;;4.88;;
49942;SDS011;36011;53.362;58.948;2022-10-19T03:13:49;3.78;;;3.20;;
49942;SDS011;36011;53.362;58.948;2022-10-19T03:16:58;5.65;;;3.78;;
49942;SDS011;36011;53.362;58.948;2022-10-19T03:20:00;5.03;;;4.40;;
49942;SDS011;36011;53.362;58.948;2022-10-19T03:23:03;6.22;;;4.28;;
49942;SDS011;36011;53.362;58.948;2022-10-19T03:26:07;3.78;;;3.28;;
49942;SDS011;36011;53.362;58.948;2022-10-19T03:29:12;4.65;;;4.05;;
49942;SDS011;36011;53.362;58.948;2022-10-19T03:32:13;4.57;;;3.13;;
49942;SDS011;36011;53.362;58.948;2022-10-19T03:35:15;5.07;;;4.00;;
49942;SDS011;36011;53.362;58.948;2022-10-19T03:38:19;5.60;;;4.10;;
49942;SDS011;36011;53.362;58.948;2022-10-19T03:41:24;3.67;;;2.60;;
49942;SDS011;36011;53.362;58.948;2022-10-19T03:44:29;4.22;;;3.15;;
49942;SDS011;36011;53.362;58.948;2022-10-19T03:47:34;4.85;;;2.60;;
49942;SDS011;36011;53.362;58.948;2022-10-19T03:50:38;4.20;;;3.30;;
49942;SDS011;36011;53.362;58.948;2022-10-19T03:53:45;4.82;;;3.15;;
49942;SDS011;36011;53.362;58.948;2022-10-19T03:56:49;3.83;;;3.28;;
49942;SDS011;36011;53.362;58.948;2022-10-19T03:59:51;6.32;;;3.90;;
49942;SDS011;36011;53.362;58.948;2022-10-19T04:02:52;3.35;;;3.05;;
49942;SDS011;36011;53.362;58.948;2022-10-19T04:06:00;4.80;;;4.30;;
49942;SDS011;36011;53.362;58.948;2022-10-19T04:09:06;4.05;;;3.38;;
49942;SDS011;36011;53.362;58.948;2022-10-19T04:12:11;3.75;;;3.33;;
49942;SDS011;36011;53.362;58.948;2022-10-19T04:15:12;5.35;;;4.15;;
49942;SDS011;36011;53.362;58.948;2022-10-19T04:18:14;6.68;;;4.93;;
49942;SDS011;36011;53.362;58.948;2022-10-19T04:21:19;6.07;;;4.22;;
49942;SDS011;36011;53.362;58.948;2022-10-19T04:24:25;6.88;;;4.70;;
49942;SDS011;36011;53.362;58.948;2022-10-19T04:27:28;6.15;;;4.80;;
49942;SDS011;36011;53.362;58.948;2022-10-19T04:30:32;6.35;;;5.22;;
49942;SDS011;36011;53.362;58.948;2022-10-19T04:33:33;7.45;;;4.97;;
49942;SDS011;36011;53.362;58.948;2022-10-19T04:36:38;7.10;;;6.20;;
49942;SDS011;36011;53.362;58.948;2022-10-19T04:39:39;6.22;;;5.20;;
49942;SDS011;36011;53.362;58.948;2022-10-19T04:42:43;8.27;;;6.38;;
49942;SDS011;36011;53.362;58.948;2022-10-19T04:45:49;9.68;;;6.60;;
49942;SDS011;36011;53.362;58.948;2022-10-19T04:48:54;7.28;;;5.85;;
49942;SDS011;36011;53.362;58.948;2022-10-19T04:51:59;8.02;;;5.93;;
49942;SDS011;36011;53.362;58.948;2022-10-19T04:55:00;5.82;;;4.97;;
49942;SDS011;36011;53.362;58.948;2022-10-19T04:58:06;8.00;;;5.68;;
49942;SDS011;36011;53.362;58.948;2022-10-19T05:01:09;8.95;;;6.30;;
49942;SDS011;36011;53.362;58.948;2022-10-19T05:04:14;6.07;;;4.63;;
49942;SDS011;36011;53.362;58.948;2022-10-19T05:07:21;7.72;;;5.15;;
49942;SDS011;36011;53.362;58.948;2022-10-19T05:10:27;6.95;;;5.05;;
49942;SDS011;36011;53.362;58.948;2022-10-19T05:13:31;5.38;;;4.68;;
49942;SDS011;36011;53.362;58.948;2022-10-19T05:16:35;5.05;;;4.50;;
49942;SDS011;36011;53.362;58.948;2022-10-19T05:19:36;7.38;;;4.93;;
49942;SDS011;36011;53.362;58.948;2022-10-19T05:22:39;8.25;;;5.43;;
49942;SDS011;36011;53.362;58.948;2022-10-19T05:25:43;5.60;;;4.57;;
49942;SDS011;36011;53.362;58.948;2022-10-19T05:28:51;7.45;;;4.85;;
49942;SDS011;36011;53.362;58.948;2022-10-19T05:31:59;6.35;;;5.10;;
49942;SDS011;36011;53.362;58.948;2022-10-19T05:35:06;5.63;;;3.30;;
49942;SDS011;36011;53.362;58.948;2022-10-19T05:38:10;5.20;;;4.22;;
49942;SDS011;36011;53.362;58.948;2022-10-19T05:41:12;7.38;;;5.70;;
49942;SDS011;36011;53.362;58.948;2022-10-19T05:44:17;9.15;;;5.70;;
49942;SDS011;36011;53.362;58.948;2022-10-19T05:47:23;4.53;;;2.88;;
49942;SDS011;36011;53.362;58.948;2022-10-19T05:50:27;7.35;;;4.90;;
49942;SDS011;36011;53.362;58.948;2022-10-19T05:53:28;8.40;;;5.18;;
49942;SDS011;36011;53.362;58.948;2022-10-19T05:56:33;7.95;;;5.38;;
49942;SDS011;36011;53.362;58.948;2022-10-19T05:59:35;7.30;;;5.75;;
49942;SDS011;36011;53.362;58.948;2022-10-19T06:02:37;12.15;;;7.43;;
49942;SDS011;36011;53.362;58.948;2022-10-19T06:05:39;8.57;;;6.78;;
49942;SDS011;36011;53.362;58.948;2022-10-19T06:08:43;7.43;;;5.32;;
49942;SDS011;36011;53.362;58.948;2022-10-19T06:11:45;8.13;;;6.25;;
49942;SDS011;36011;53.362;58.948;2022-10-19T06:14:51;7.45;;;4.10;;
49942;SDS011;36011;53.362;58.948;2022-10-19T06:17:54;8.10;;;5.18;;
49942;SDS011;36011;53.362;58.948;2022-10-19T06:21:00;8.02;;;5.57;;
49942;SDS011;36011;53.362;58.948;2022-10-19T06:24:03;7.68;;;5.40;;
49942;SDS011;36011;53.362;58.948;2022-10-19T06:27:05;7.35;;;5.28;;
49942;SDS011;36011;53.362;58.948;2022-10-19T06:30:12;5.82;;;4.55;;
49942;SDS011;36011;53.362;58.948;2022-10-19T06:33:17;6.65;;;5.03;;
49942;SDS011;36011;53.362;58.948;2022-10-19T06:36:20;4.53;;;3.55;;
49942;SDS011;36011;53.362;58.948;2022-10-19T06:39:25;6.47;;;4.45;;
49942;SDS011;36011;53.362;58.948;2022-10-19T06:42:31;5.55;;;4.20;;
49942;SDS011;36011;53.362;58.948;2022-10-19T06:45:33;6.88;;;5.13;;
49942;SDS011;36011;53.362;58.948;2022-10-19T06:51:38;7.63;;;6.40;;
49942;SDS011;36011;53.362;58.948;2022-10-19T06:54:45;9.82;;;6.65;;
49942;SDS011;36011;53.362;58.948;2022-10-19T06:57:48;9.02;;;7.00;;
49942;SDS011;36011;53.362;58.948;2022-10-19T07:00:58;7.53;;;5.20;;
49942;SDS011;36011;53.362;58.948;2022-10-19T07:04:00;6.95;;;5.43;;
49942;SDS011;36011;53.362;58.948;2022-10-19T07:10:05;6.57;;;5.05;;
49942;SDS011;36011;53.362;58.948;2022-10-19T07:13:09;7.80;;;5.65;;
49942;SDS011;36011;53.362;58.948;2022-10-19T07:16:14;3.42;;;2.40;;
49942;SDS011;36011;53.362;58.948;2022-10-19T07:19:17;2.22;;;1.98;;
49942;SDS011;36011;53.362;58.948;2022-10-19T07:22:18;1.63;;;1.42;;
49942;SDS011;36011;53.362;58.948;2022-10-19T07:25:20;3.03;;;1.42;;
49942;SDS011;36011;53.362;58.948;2022-10-19T07:28:23;1.90;;;1.38;;
49942;SDS011;36011;53.362;58.948;2022-10-19T07:31:27;2.03;;;1.33;;
49942;SDS011;36011;53.362;58.948;2022-10-19T07:34:30;1.60;;;1.40;;
49942;SDS011;36011;53.362;58.948;2022-10-19T07:40:34;1.60;;;1.25;;
49942;SDS011;36011;53.362;58.948;2022-10-19T07:46:43;1.58;;;1.42;;
49942;SDS011;36011;53.362;58.948;2022-10-19T07:49:44;2.47;;;2.08;;
49942;SDS011;36011;53.362;58.948;2022-10-19T07:52:50;2.90;;;2.15;;
49942;SDS011;36011;53.362;58.948;2022-10-19T07:55:52;3.83;;;3.08;;
49942;SDS011;36011;53.362;58.948;2022-10-19T07:58:54;4.35;;;3.05;;
49942;SDS011;36011;53.362;58.948;2022-10-19T08:01:59;3.08;;;2.78;;
49942;SDS011;36011;53.362;58.948;2022-10-19T08:05:04;4.82;;;2.78;;
49942;SDS011;36011;53.362;58.948;2022-10-19T08:08:06;1.75;;;1.40;;
49942;SDS011;36011;53.362;58.948;2022-10-19T08:11:26;0.57;;;0.55;;
49942;SDS011;36011;53.362;58.948;2022-10-19T08:17:34;0.38;;;0.38;;
49942;SDS011;36011;53.362;58.948;2022-10-19T08:20:39;1.35;;;0.50;;
49942;SDS011;36011;53.362;58.948;2022-10-19T08:23:41;0.50;;;0.50;;
49942;SDS011;36011;53.362;58.948;2022-10-19T08:26:42;0.30;;;0.30;;
49942;SDS011;36011;53.362;58.948;2022-10-19T08:29:44;0.75;;;0.32;;
49942;SDS011;36011;53.362;58.948;2022-10-19T08:32:46;0.43;;;0.30;;
49942;SDS011;36011;53.362;58.948;2022-10-19T08:35:47;3.08;;;0.90;;
49942;SDS011;36011;53.362;58.948;2022-10-19T08:38:56;2.05;;;0.50;;
49942;SDS011;36011;53.362;58.948;2022-10-19T08:42:03;0.28;;;0.28;;
49942;SDS011;36011;53.362;58.948;2022-10-19T08:45:30;0.47;;;0.20;;
49942;SDS011;36011;53.362;58.948;2022-10-19T08:48:39;0.20;;;0.20;;
49942;SDS011;36011;53.362;58.948;2022-10-19T08:51:45;0.10;;;0.00;;
49942;SDS011;36011;53.362;58.948;2022-10-19T08:54:59;0.35;;;0.10;;
49942;SDS011;36011;53.362;58.948;2022-10-19T09:04:46;1.30;;;0.40;;
49942;SDS011;36011;53.362;58.948;2022-10-19T09:07:50;0.13;;;0.10;;
49942;SDS011;36011;53.362;58.948;2022-10-19T09:10:59;0.20;;;0.20;;
49942;SDS011;36011;53.362;58.948;2022-10-19T09:17:27;0.13;;;0.10;;
49942;SDS011;36011;53.362;58.948;2022-10-19T09:20:36;0.10;;;0.00;;
49942;SDS011;36011;53.362;58.948;2022-10-19T09:27:04;0.30;;;0.10;;
49942;SDS011;36011;53.362;58.948;2022-10-19T09:30:14;0.03;;;0.03;;
49942;SDS011;36011;53.362;58.948;2022-10-19T09:33:23;0.25;;;0.10;;
49942;SDS011;36011;53.362;58.948;2022-10-19T09:36:40;0.45;;;0.20;;
49942;SDS011;36011;53.362;58.948;2022-10-19T09:39:46;0.20;;;0.20;;
49942;SDS011;36011;53.362;58.948;2022-10-19T09:42:51;1.10;;;0.38;;
49942;SDS011;36011;53.362;58.948;2022-10-19T09:46:10;1.20;;;0.65;;
49942;SDS011;36011;53.362;58.948;2022-10-19T09:49:15;1.65;;;0.90;;
49942;SDS011;36011;53.362;58.948;2022-10-19T09:52:22;0.80;;;0.60;;
49942;SDS011;36011;53.362;58.948;2022-10-19T09:55:26;0.57;;;0.43;;
49942;SDS011;36011;53.362;58.948;2022-10-19T09:58:31;0.73;;;0.30;;
49942;SDS011;36011;53.362;58.948;2022-10-19T10:01:36;1.38;;;0.60;;
49942;SDS011;36011;53.362;58.948;2022-10-19T10:04:38;0.32;;;0.20;;
49942;SDS011;36011;53.362;58.948;2022-10-19T10:07:40;0.30;;;0.22;;
49942;SDS011;36011;53.362;58.948;2022-10-19T10:10:43;1.55;;;0.43;;
49942;SDS011;36011;53.362;58.948;2022-10-19T10:13:55;0.75;;;0.32;;
49942;SDS011;36011;53.362;58.948;2022-10-19T10:17:15;0.70;;;0.57;;
49942;SDS011;36011;53.362;58.948;2022-10-19T10:20:25;0.95;;;0.30;;
49942;SDS011;36011;53.362;58.948;2022-10-19T10:23:31;1.20;;;0.20;;
49942;SDS011;36011;53.362;58.948;2022-10-19T10:27:24;0.63;;;0.38;;
49942;SDS011;36011;53.362;58.948;2022-10-19T10:30:08;0.65;;;0.32;;
49942;SDS011;36011;53.362;58.948;2022-10-19T10:33:17;0.68;;;0.20;;
49942;SDS011;36011;53.362;58.948;2022-10-19T10:36:26;0.90;;;0.30;;
49942;SDS011;36011;53.362;58.948;2022-10-19T10:39:32;1.70;;;0.40;;
49942;SDS011;36011;53.362;58.948;2022-10-19T10:42:42;1.77;;;0.40;;
49942;SDS011;36011;53.362;58.948;2022-10-19T10:45:50;0.28;;;0.28;;
49942;SDS011;36011;53.362;58.948;2022-10-19T10:48:55;0.40;;;0.40;;
49942;SDS011;36011;53.362;58.948;2022-10-19T10:52:13;1.05;;;0.28;;
49942;SDS011;36011;53.362;58.948;2022-10-19T10:55:17;0.50;;;0.30;;
49942;SDS011;36011;53.362;58.948;2022-10-19T10:58:20;0.40;;;0.40;;
49942;SDS011;36011;53.362;58.948;2022-10-19T11:05:12;0.35;;;0.30;;
49942;SDS011;36011;53.362;58.948;2022-10-19T11:08:39;0.60;;;0.40;;
49942;SDS011;36011;53.362;58.948;2022-10-19T11:11:46;0.95;;;0.60;;
49942;SDS011;36011;53.362;58.948;2022-10-19T11:14:59;0.82;;;0.60;;
49942;SDS011;36011;53.362;58.948;2022-10-19T11:35:57;1.77;;;1.40;;
49942;SDS011;36011;53.362;58.948;2022-10-19T11:43:03;1.10;;;0.60;;
49942;SDS011;36011;53.362;58.948;2022-10-19T12:03:12;1.70;;;0.80;;
49942;SDS011;36011;53.362;58.948;2022-10-19T12:12:34;0.77;;;0.73;;
49942;SDS011;36011;53.362;58.948;2022-10-19T12:15:45;0.95;;;0.70;;
49942;SDS011;36011;53.362;58.948;2022-10-19T12:18:53;1.35;;;0.82;;
49942;SDS011;36011;53.362;58.948;2022-10-19T12:22:03;1.15;;;0.70;;
49942;SDS011;36011;53.362;58.948;2022-10-19T12:25:10;0.85;;;0.80;;
49942;SDS011;36011;53.362;58.948;2022-10-19T12:28:24;0.95;;;0.82;;
49942;SDS011;36011;53.362;58.948;2022-10-19T12:31:29;0.70;;;0.60;;
49942;SDS011;36011;53.362;58.948;2022-10-19T12:37:48;1.02;;;0.88;;
49942;SDS011;36011;53.362;58.948;2022-10-19T12:48:04;1.08;;;0.82;;
49942;SDS011;36011;53.362;58.948;2022-10-19T12:51:12;1.38;;;0.93;;
49942;SDS011;36011;53.362;58.948;2022-10-19T12:54:20;0.93;;;0.80;;
49942;SDS011;36011;53.362;58.948;2022-10-19T12:57:27;1.02;;;0.88;;
49942;SDS011;36011;53.362;58.948;2022-10-19T13:00:33;0.82;;;0.82;;
49942;SDS011;36011;53.362;58.948;2022-10-19T13:03:41;0.95;;;0.60;;
49942;SDS011;36011;53.362;58.948;2022-10-19T13:07:05;0.95;;;0.60;;
49942;SDS011;36011;53.362;58.948;2022-10-19T13:10:13;1.80;;;0.98;;
49942;SDS011;36011;53.362;58.948;2022-10-19T13:17:02;0.90;;;0.60;;
49942;SDS011;36011;53.362;58.948;2022-10-19T13:26:28;0.93;;;0.50;;
49942;SDS011;36011;53.362;58.948;2022-10-19T13:32:42;0.65;;;0.40;;
49942;SDS011;36011;53.362;58.948;2022-10-19T13:35:47;1.15;;;0.40;;
49942;SDS011;36011;53.362;58.948;2022-10-19T13:39:08;0.47;;;0.40;;
49942;SDS011;36011;53.362;58.948;2022-10-19T13:42:24;1.50;;;0.80;;
49942;SDS011;36011;53.362;58.948;2022-10-19T13:45:29;1.20;;;0.77;;
49942;SDS011;36011;53.362;58.948;2022-10-19T13:48:42;0.50;;;0.47;;
49942;SDS011;36011;53.362;58.948;2022-10-19T14:05:20;3.58;;;2.35;;
49942;SDS011;36011;53.362;58.948;2022-10-19T14:12:08;3.80;;;2.58;;
49942;SDS011;36011;53.362;58.948;2022-10-19T14:15:25;3.05;;;1.65;;
49942;SDS011;36011;53.362;58.948;2022-10-19T14:18:33;3.72;;;2.10;;
49942;SDS011;36011;53.362;58.948;2022-10-19T14:21:35;2.17;;;1.50;;
49942;SDS011;36011;53.362;58.948;2022-10-19T14:27:41;3.13;;;1.60;;
49942;SDS011;36011;53.362;58.948;2022-10-19T14:30:43;2.38;;;1.60;;
49942;SDS011;36011;53.362;58.948;2022-10-19T14:33:55;2.40;;;1.50;;
49942;SDS011;36011;53.362;58.948;2022-10-19T14:37:00;1.50;;;1.15;;
49942;SDS011;36011;53.362;58.948;2022-10-19T14:40:04;1.08;;;0.80;;
49942;SDS011;36011;53.362;58.948;2022-10-19T14:43:20;1.98;;;0.90;;
49942;SDS011;36011;53.362;58.948;2022-10-19T14:46:30;0.93;;;0.70;;
49942;SDS011;36011;53.362;58.948;2022-10-19T14:49:37;0.60;;;0.60;;
49942;SDS011;36011;53.362;58.948;2022-10-19T14:52:41;0.77;;;0.60;;
49942;SDS011;36011;53.362;58.948;2022-10-19T14:55:43;0.60;;;0.60;;
49942;SDS011;36011;53.362;58.948;2022-10-19T15:05:27;2.40;;;1.40;;
49942;SDS011;36011;53.362;58.948;2022-10-19T15:08:39;3.00;;;1.52;;
49942;SDS011;36011;53.362;58.948;2022-10-19T15:11:50;1.00;;;0.85;;
49942;SDS011;36011;53.362;58.948;2022-10-19T15:14:57;1.42;;;0.70;;
49942;SDS011;36011;53.362;58.948;2022-10-19T15:21:12;3.55;;;1.88;;
49942;SDS011;36011;53.362;58.948;2022-10-19T15:24:25;4.18;;;2.20;;
49942;SDS011;36011;53.362;58.948;2022-10-19T15:27:42;3.10;;;1.75;;
49942;SDS011;36011;53.362;58.948;2022-10-19T15:30:56;2.40;;;1.63;;
49942;SDS011;36011;53.362;58.948;2022-10-19T15:33:59;0.88;;;0.77;;
49942;SDS011;36011;53.362;58.948;2022-10-19T15:37:02;1.08;;;0.98;;
49942;SDS011;36011;53.362;58.948;2022-10-19T15:40:16;0.80;;;0.80;;
49942;SDS011;36011;53.362;58.948;2022-10-19T15:43:23;1.85;;;0.50;;
49942;SDS011;36011;53.362;58.948;2022-10-19T15:46:31;0.60;;;0.50;;
49942;SDS011;36011;53.362;58.948;2022-10-19T15:49:57;0.60;;;0.60;;
49942;SDS011;36011;53.362;58.948;2022-10-19T15:53:00;0.50;;;0.50;;
49942;SDS011;36011;53.362;58.948;2022-10-19T15:56:02;0.70;;;0.60;;
49942;SDS011;36011;53.362;58.948;2022-10-19T15:59:05;0.55;;;0.55;;
49942;SDS011;36011;53.362;58.948;2022-10-19T16:02:13;0.77;;;0.50;;
49942;SDS011;36011;53.362;58.948;2022-10-19T16:05:15;1.52;;;0.80;;
49942;SDS011;36011;53.362;58.948;2022-10-19T16:08:17;1.45;;;0.80;;
49942;SDS011;36011;53.362;58.948;2022-10-19T16:11:19;1.50;;;1.25;;
49942;SDS011;36011;53.362;58.948;2022-10-19T16:14:23;2.63;;;1.60;;
49942;SDS011;36011;53.362;58.948;2022-10-19T16:17:26;2.30;;;1.48;;
49942;SDS011;36011;53.362;58.948;2022-10-19T16:20:28;2.50;;;1.20;;
49942;SDS011;36011;53.362;58.948;2022-10-19T16:23:32;1.35;;;1.00;;
49942;SDS011;36011;53.362;58.948;2022-10-19T16:26:38;1.92;;;1.17;;
49942;SDS011;36011;53.362;58.948;2022-10-19T16:29:42;1.48;;;0.90;;
49942;SDS011;36011;53.362;58.948;2022-10-19T16:32:47;2.85;;;1.17;;
49942;SDS011;36011;53.362;58.948;2022-10-19T16:35:50;2.78;;;1.08;;
49942;SDS011;36011;53.362;58.948;2022-10-19T16:38:54;2.90;;;1.48;;
49942;SDS011;36011;53.362;58.948;2022-10-19T16:42:00;2.47;;;1.77;;
49942;SDS011;36011;53.362;58.948;2022-10-19T16:45:02;1.40;;;1.30;;
49942;SDS011;36011;53.362;58.948;2022-10-19T16:48:04;0.90;;;0.80;;
49942;SDS011;36011;53.362;58.948;2022-10-19T16:54:10;0.90;;;0.88;;
49942;SDS011;36011;53.362;58.948;2022-10-19T16:57:16;1.63;;;0.98;;
49942;SDS011;36011;53.362;58.948;2022-10-19T17:00:18;1.30;;;1.05;;
49942;SDS011;36011;53.362;58.948;2022-10-19T17:03:19;1.08;;;0.90;;
49942;SDS011;36011;53.362;58.948;2022-10-19T17:06:26;1.20;;;0.85;;
49942;SDS011;36011;53.362;58.948;2022-10-19T17:09:28;1.90;;;1.10;;
49942;SDS011;36011;53.362;58.948;2022-10-19T17:12:32;1.08;;;0.98;;
49942;SDS011;36011;53.362;58.948;2022-10-19T17:15:39;1.60;;;0.90;;
49942;SDS011;36011;53.362;58.948;2022-10-19T17:18:40;0.75;;;0.73;;
49942;SDS011;36011;53.362;58.948;2022-10-19T17:21:45;2.22;;;1.50;;
49942;SDS011;36011;53.362;58.948;2022-10-19T17:24:46;1.95;;;1.10;;
49942;SDS011;36011;53.362;58.948;2022-10-19T17:27:50;4.05;;;1.92;;
49942;SDS011;36011;53.362;58.948;2022-10-19T17:31:01;2.75;;;1.63;;
49942;SDS011;36011;53.362;58.948;2022-10-19T17:34:07;1.50;;;0.93;;
49942;SDS011;36011;53.362;58.948;2022-10-19T17:37:11;0.85;;;0.80;;
49942;SDS011;36011;53.362;58.948;2022-10-19T17:40:16;1.13;;;0.80;;
49942;SDS011;36011;53.362;58.948;2022-10-19T17:43:19;0.82;;;0.80;;
49942;SDS011;36011;53.362;58.948;2022-10-19T17:46:25;2.13;;;0.75;;
49942;SDS011;36011;53.362;58.948;2022-10-19T17:49:28;0.77;;;0.70;;
49942;SDS011;36011;53.362;58.948;2022-10-19T17:52:30;0.70;;;0.70;;
49942;SDS011;36011;53.362;58.948;2022-10-19T17:55:35;0.88;;;0.68;;
49942;SDS011;36011;53.362;58.948;2022-10-19T17:58:36;1.00;;;1.00;;
49942;SDS011;36011;53.362;58.948;2022-10-19T18:01:40;1.40;;;1.05;;
49942;SDS011;36011;53.362;58.948;2022-10-19T18:04:42;1.35;;;1.25;;
49942;SDS011;36011;53.362;58.948;2022-10-19T18:07:45;1.75;;;1.60;;
49942;SDS011;36011;53.362;58.948;2022-10-19T18:10:47;1.70;;;1.58;;
49942;SDS011;36011;53.362;58.948;2022-10-19T18:13:57;2.70;;;1.58;;
49942;SDS011;36011;53.362;58.948;2022-10-19T18:17:00;3.78;;;2.42;;
49942;SDS011;36011;53.362;58.948;2022-10-19T18:20:04;4.53;;;3.13;;
49942;SDS011;36011;53.362;58.948;2022-10-19T18:23:06;5.22;;;3.83;;
49942;SDS011;36011;53.362;58.948;2022-10-19T18:26:11;4.63;;;3.17;;
49942;SDS011;36011;53.362;58.948;2022-10-19T18:29:20;2.47;;;1.85;;
49942;SDS011;36011;53.362;58.948;2022-10-19T18:32:25;1.92;;;1.58;;
49942;SDS011;36011;53.362;58.948;2022-10-19T18:35:33;2.03;;;1.23;;
49942;SDS011;36011;53.362;58.948;2022-10-19T18:38:48;1.77;;;1.08;;
49942;SDS011;36011;53.362;58.948;2022-10-19T18:41:52;0.93;;;0.93;;
49942;SDS011;36011;53.362;58.948;2022-10-19T18:44:56;1.10;;;1.00;;
49942;SDS011;36011;53.362;58.948;2022-10-19T18:48:01;1.42;;;1.33;;
49942;SDS011;36011;53.362;58.948;2022-10-19T18:51:05;2.20;;;1.33;;
49942;SDS011;36011;53.362;58.948;2022-10-19T18:54:08;1.25;;;1.10;;
49942;SDS011;36011;53.362;58.948;2022-10-19T18:57:13;1.35;;;1.25;;
49942;SDS011;36011;53.362;58.948;2022-10-19T19:00:15;2.58;;;1.50;;
49942;SDS011;36011;53.362;58.948;2022-10-19T19:03:16;2.28;;;1.58;;
49942;SDS011;36011;53.362;58.948;2022-10-19T19:06:26;3.60;;;1.73;;
49942;SDS011;36011;53.362;58.948;2022-10-19T19:09:32;1.60;;;1.50;;
49942;SDS011;36011;53.362;58.948;2022-10-19T19:12:34;3.17;;;1.60;;
49942;SDS011;36011;53.362;58.948;2022-10-19T19:15:35;1.95;;;1.42;;
49942;SDS011;36011;53.362;58.948;2022-10-19T19:18:37;2.47;;;1.40;;
49942;SDS011;36011;53.362;58.948;2022-10-19T19:21:38;1.67;;;1.40;;
49942;SDS011;36011;53.362;58.948;2022-10-19T19:24:43;1.33;;;1.13;;
49942;SDS011;36011;53.362;58.948;2022-10-19T19:27:45;2.22;;;1.52;;
49942;SDS011;36011;53.362;58.948;2022-10-19T19:30:52;1.30;;;1.10;;
49942;SDS011;36011;53.362;58.948;2022-10-19T19:33:53;2.53;;;1.33;;
49942;SDS011;36011;53.362;58.948;2022-10-19T19:36:55;1.73;;;1.40;;
49942;SDS011;36011;53.362;58.948;2022-10-19T19:39:56;2.00;;;1.80;;
49942;SDS011;36011;53.362;58.948;2022-10-19T19:42:58;2.13;;;1.80;;
49942;SDS011;36011;53.362;58.948;2022-10-19T19:46:02;2.53;;;1.73;;
49942;SDS011;36011;53.362;58.948;2022-10-19T19:49:09;4.25;;;2.38;;
49942;SDS011;36011;53.362;58.948;2022-10-19T19:52:11;2.28;;;1.85;;
49942;SDS011;36011;53.362;58.948;2022-10-19T19:55:12;3.33;;;2.13;;
49942;SDS011;36011;53.362;58.948;2022-10-19T19:58:14;2.15;;;1.90;;
49942;SDS011;36011;53.362;58.948;2022-10-19T20:01:19;2.17;;;1.80;;
49942;SDS011;36011;53.362;58.948;2022-10-19T20:04:22;2.40;;;1.92;;
49942;SDS011;36011;53.362;58.948;2022-10-19T20:07:24;2.35;;;1.88;;
49942;SDS011;36011;53.362;58.948;2022-10-19T20:10:26;2.63;;;2.17;;
49942;SDS011;36011;53.362;58.948;2022-10-19T20:13:30;2.80;;;2.13;;
49942;SDS011;36011;53.362;58.948;2022-10-19T20:19:39;2.88;;;2.20;;
49942;SDS011;36011;53.362;58.948;2022-10-19T20:22:44;3.00;;;2.30;;
49942;SDS011;36011;53.362;58.948;2022-10-19T20:25:46;3.97;;;2.72;;
49942;SDS011;36011;53.362;58.948;2022-10-19T20:28:47;3.30;;;2.60;;
49942;SDS011;36011;53.362;58.948;2022-10-19T20:31:54;4.63;;;2.90;;
49942;SDS011;36011;53.362;58.948;2022-10-19T20:35:01;3.58;;;2.85;;
49942;SDS011;36011;53.362;58.948;2022-10-19T20:38:08;3.35;;;2.80;;
49942;SDS011;36011;53.362;58.948;2022-10-19T20:41:12;3.10;;;2.80;;
49942;SDS011;36011;53.362;58.948;2022-10-19T20:44:20;2.90;;;2.10;;
49942;SDS011;36011;53.362;58.948;2022-10-19T20:47:25;3.28;;;2.70;;
49942;SDS011;36011;53.362;58.948;2022-10-19T20:50:28;5.55;;;3.20;;
49942;SDS011;36011;53.362;58.948;2022-10-19T20:53:29;4.53;;;3.20;;
49942;SDS011;36011;53.362;58.948;2022-10-19T20:56:34;3.60;;;3.08;;
49942;SDS011;36011;53.362;58.948;2022-10-19T21:02:39;3.22;;;2.38;;
49942;SDS011;36011;53.362;58.948;2022-10-19T21:05:46;4.70;;;3.58;;
49942;SDS011;36011;53.362;58.948;2022-10-19T21:08:48;4.10;;;2.80;;
49942;SDS011;36011;53.362;58.948;2022-10-19T21:11:52;4.05;;;2.90;;